Time;durP1;ratioP1;P1;durP2;ratioP2;P2;SDS_P1;SDS_P2;PMS_P1;PMS_P2;Temp;Humidity;BMP_temperature;BMP_pressure;BME280_temperature;BME280_humidity;BME280_pressure;Samples;Min_cycle;Max_cycle;Signal;HPM_P1;HPM_P2
2022/07/10 00:01:02;;;;;;;7.30;1.90;;;15.00;1.00;;;;;;6260304;22;20380;-86
2022/07/10 00:03:31;;;;;;;7.37;2.10;;;14.90;1.00;;;;;;6258071;22;20443;-84
2022/07/10 00:05:58;;;;;;;7.53;1.97;;;15.00;1.00;;;;;;6261173;22;20425;-84
2022/07/10 00:08:29;;;;;;;9.00;1.93;;;15.00;1.00;;;;;;6257961;22;20392;-84
2022/07/10 00:10:59;;;;;;;7.37;1.83;;;15.10;1.00;;;;;;6247514;22;20520;-85
2022/07/10 00:13:30;;;;;;;9.63;1.60;;;15.20;1.00;;;;;;6259768;22;20522;-85
2022/07/10 00:15:57;;;;;;;8.80;2.07;;;15.20;1.00;;;;;;6258944;22;20404;-85
2022/07/10 00:18:34;;;;;;;10.13;2.00;;;15.20;1.00;;;;;;6259659;22;20412;-84
2022/07/10 00:21:01;;;;;;;7.23;1.80;;;15.30;1.00;;;;;;6259053;22;20428;-85
2022/07/10 00:23:30;;;;;;;11.53;2.90;;;15.30;1.00;;;;;;6259047;22;20427;-84
2022/07/10 00:25:57;;;;;;;8.20;2.57;;;15.30;1.00;;;;;;6244192;22;20420;-85
2022/07/10 00:28:29;;;;;;;8.73;1.60;;;15.30;1.00;;;;;;6260980;22;21015;-84
2022/07/10 00:30:56;;;;;;;7.00;1.87;;;15.40;1.00;;;;;;6259639;22;20944;-83
2022/07/10 00:33:31;;;;;;;7.97;1.50;;;15.40;1.00;;;;;;6262286;22;20435;-84
2022/07/10 00:36:01;;;;;;;10.47;1.80;;;15.40;1.00;;;;;;6218822;22;20423;-84
2022/07/10 00:38:30;;;;;;;11.77;1.90;;;15.40;1.00;;;;;;6260852;22;20503;-82
2022/07/10 00:40:56;;;;;;;8.43;1.80;;;15.40;1.00;;;;;;6258291;22;20436;-83
2022/07/10 00:43:31;;;;;;;8.97;2.13;;;15.40;1.00;;;;;;6260384;22;20443;-83
2022/07/10 00:46:01;;;;;;;7.13;1.60;;;15.40;1.00;;;;;;6235842;22;20459;-84
2022/07/10 00:48:30;;;;;;;7.10;2.07;;;15.40;1.00;;;;;;6257320;22;20430;-83
2022/07/10 00:50:57;;;;;;;6.13;1.60;;;15.40;1.00;;;;;;6261194;22;20380;-83
2022/07/10 00:53:34;;;;;;;9.10;2.20;;;15.40;1.00;;;;;;6262260;22;20503;-83
2022/07/10 00:56:01;;;;;;;6.70;1.60;;;15.40;1.00;;;;;;6260637;22;20408;-82
2022/07/10 00:58:31;;;;;;;5.80;1.57;;;15.30;1.00;;;;;;6260801;22;20585;-83
2022/07/10 01:00:58;;;;;;;6.07;1.60;;;15.30;1.00;;;;;;6261853;22;20424;-84
2022/07/10 01:03:30;;;;;;;9.90;2.03;;;15.30;1.00;;;;;;6259404;22;20423;-84
2022/07/10 01:05:57;;;;;;;8.13;1.50;;;15.20;1.00;;;;;;6260826;22;20943;-84
2022/07/10 01:08:26;;;;;;;8.30;1.63;;;15.20;1.00;;;;;;6263436;22;20453;-84
2022/07/10 01:10:54;;;;;;;9.33;1.80;;;15.20;1.00;;;;;;6261600;22;20463;-83
2022/07/10 01:13:29;;;;;;;7.20;1.80;;;15.20;1.00;;;;;;6263341;22;20507;-84
2022/07/10 01:15:56;;;;;;;8.07;1.70;;;15.20;1.00;;;;;;6261527;22;20404;-82
2022/07/10 01:18:28;;;;;;;5.83;1.43;;;15.20;1.00;;;;;;6261241;22;20450;-84
2022/07/10 01:20:57;;;;;;;9.70;1.93;;;15.20;1.00;;;;;;6263099;22;20502;-83
2022/07/10 01:23:28;;;;;;;10.47;1.87;;;15.20;1.00;;;;;;6263582;22;20464;-83
2022/07/10 01:25:55;;;;;;;7.27;1.63;;;15.20;1.00;;;;;;6262470;22;20419;-84
2022/07/10 01:28:23;;;;;;;7.37;1.60;;;15.30;1.00;;;;;;6266361;22;21195;-82
2022/07/10 01:30:50;;;;;;;6.57;1.77;;;15.30;1.00;;;;;;6264398;22;20380;-83
2022/07/10 01:33:17;;;;;;;9.00;1.87;;;15.20;1.00;;;;;;6262400;22;20478;-83
2022/07/10 01:35:55;;;;;;;7.50;1.53;;;15.20;1.00;;;;;;6266400;22;20961;-82
2022/07/10 01:38:30;;;;;;;8.43;1.40;;;15.20;1.00;;;;;;6263929;22;20626;-81
2022/07/10 01:40:57;;;;;;;6.60;1.33;;;15.20;1.00;;;;;;6260719;22;20857;-83
2022/07/10 01:43:28;;;;;;;7.87;1.37;;;15.20;1.00;;;;;;6265386;22;20419;-82
2022/07/10 01:45:55;;;;;;;7.10;1.20;;;15.20;1.00;;;;;;6264545;22;20388;-84
2022/07/10 01:48:23;;;;;;;9.60;2.07;;;15.20;1.00;;;;;;6260651;22;20462;-83
2022/07/10 01:50:52;;;;;;;8.80;1.60;;;15.20;1.00;;;;;;6260905;22;20503;-84
2022/07/10 01:53:29;;;;;;;8.43;1.60;;;15.20;1.00;;;;;;6257373;22;20404;-84
2022/07/10 01:58:34;;;;;;;8.97;1.83;;;15.20;1.00;;;;;;6359434;22;20504;-85
2022/07/10 02:01:03;;;;;;;6.37;1.13;;;15.10;1.00;;;;;;6356744;22;20445;-85
2022/07/10 02:06:15;;;;;;;5.37;0.97;;;15.10;1.00;;;;;;6357064;22;20836;-85
2022/07/10 02:08:52;;;;;;;9.30;1.40;;;15.10;1.00;;;;;;6355216;22;20964;-86
2022/07/10 02:11:20;;;;;;;5.53;1.20;;;15.10;1.00;;;;;;6344796;22;20421;-84
2022/07/10 02:13:58;;;;;;;6.60;1.67;;;15.10;1.00;;;;;;6357544;22;20943;-85
2022/07/10 02:16:31;;;;;;;7.23;0.90;;;15.10;1.00;;;;;;6356660;22;20417;-85
2022/07/10 02:18:58;;;;;;;6.97;1.27;;;15.10;1.00;;;;;;6358077;22;20389;-85
2022/07/10 02:21:37;;;;;;;7.30;1.00;;;15.00;1.00;;;;;;6355546;22;20499;-85
2022/07/10 02:24:13;;;;;;;7.03;1.03;;;15.00;1.00;;;;;;6357701;22;20452;-83
2022/07/10 02:26:40;;;;;;;7.27;1.77;;;14.90;1.00;;;;;;6355805;22;20540;-86
2022/07/10 02:29:12;;;;;;;5.80;1.03;;;14.90;1.00;;;;;;6359948;22;20428;-84
2022/07/10 02:31:41;;;;;;;6.47;1.20;;;14.90;1.00;;;;;;6337096;22;20400;-84
2022/07/10 02:34:12;;;;;;;6.07;1.07;;;14.80;1.00;;;;;;6352805;22;20441;-84
2022/07/10 02:36:42;;;;;;;8.87;1.30;;;14.80;1.00;;;;;;6355372;22;20381;-85
2022/07/10 02:39:23;;;;;;;7.10;1.60;;;14.80;1.00;;;;;;6329364;22;20417;-84
2022/07/10 02:44:46;;;;;;;8.27;1.87;;;14.80;1.00;;;;;;6333253;22;20452;-87
2022/07/10 02:47:20;;;;;;;7.07;1.60;;;14.80;1.00;;;;;;6342675;22;20417;-86
2022/07/10 02:49:47;;;;;;;7.27;1.63;;;14.80;1.00;;;;;;6352918;22;20409;-86
2022/07/10 02:55:02;;;;;;;7.20;1.33;;;14.70;1.00;;;;;;6340448;22;20385;-85
2022/07/10 02:57:41;;;;;;;7.20;1.50;;;14.70;1.00;;;;;;6356665;22;21149;-86
2022/07/10 03:00:22;;;;;;;9.23;1.40;;;14.60;1.00;;;;;;6342332;22;20448;-82
2022/07/10 03:02:55;;;;;;;6.53;1.67;;;14.60;1.00;;;;;;6352821;22;20378;-85
2022/07/10 03:05:30;;;;;;;8.30;1.43;;;14.50;1.00;;;;;;6359810;22;20409;-86
2022/07/10 03:07:58;;;;;;;6.90;1.50;;;14.50;1.00;;;;;;6320111;22;20474;-86
2022/07/10 03:10:34;;;;;;;6.23;1.13;;;14.50;1.00;;;;;;6361355;22;20799;-85
2022/07/10 03:13:01;;;;;;;7.00;1.23;;;14.50;1.00;;;;;;6338320;22;20486;-83
2022/07/10 03:15:31;;;;;;;8.33;1.33;;;14.50;1.00;;;;;;6352073;22;20586;-86
2022/07/10 03:18:00;;;;;;;6.87;1.50;;;14.50;1.00;;;;;;6354857;22;20483;-86
2022/07/10 03:20:31;;;;;;;8.83;1.57;;;14.50;1.00;;;;;;6353835;22;20404;-83
2022/07/10 03:22:59;;;;;;;6.87;1.40;;;14.60;1.00;;;;;;6354753;22;20401;-84
2022/07/10 03:25:33;;;;;;;6.83;1.20;;;14.50;1.00;;;;;;6357066;22;20397;-85
2022/07/10 03:28:00;;;;;;;6.00;1.20;;;14.50;1.00;;;;;;6355810;22;21210;-86
2022/07/10 03:30:33;;;;;;;5.30;1.00;;;14.50;1.00;;;;;;6355240;22;20432;-87
2022/07/10 03:33:00;;;;;;;7.67;1.53;;;14.50;1.00;;;;;;6360327;22;20512;-86
2022/07/10 03:35:32;;;;;;;7.70;1.20;;;14.50;1.00;;;;;;6357654;22;20417;-85
2022/07/10 03:37:59;;;;;;;6.70;1.33;;;14.40;1.00;;;;;;6354276;22;20920;-86
2022/07/10 03:40:33;;;;;;;9.30;1.40;;;14.40;1.00;;;;;;6358615;22;20405;-84
2022/07/10 03:43:00;;;;;;;6.07;1.00;;;14.40;1.00;;;;;;6355342;22;20509;-86
2022/07/10 03:45:31;;;;;;;7.63;1.60;;;14.40;1.00;;;;;;6355513;22;20386;-84
2022/07/10 03:48:12;;;;;;;9.43;1.40;;;14.50;1.00;;;;;;6357096;22;20397;-86
2022/07/10 03:50:39;;;;;;;8.00;1.50;;;14.50;1.00;;;;;;6353171;22;21267;-84
2022/07/10 03:53:13;;;;;;;7.60;1.43;;;14.50;1.00;;;;;;6356619;22;20397;-84
2022/07/10 03:55:41;;;;;;;8.70;1.47;;;14.50;1.00;;;;;;6356243;22;20439;-86
2022/07/10 03:58:10;;;;;;;6.50;1.47;;;14.50;1.00;;;;;;6338823;22;20603;-85
2022/07/10 04:00:38;;;;;;;7.87;1.30;;;14.50;1.00;;;;;;6354818;22;20442;-85
2022/07/10 04:03:13;;;;;;;8.03;1.37;;;14.50;1.00;;;;;;6355066;22;20414;-84
2022/07/10 04:05:51;;;;;;;5.63;1.00;;;14.50;1.00;;;;;;6337129;22;20429;-85
2022/07/10 04:08:20;;;;;;;7.53;2.27;;;14.50;1.00;;;;;;6356665;22;20417;-84
2022/07/10 04:10:54;;;;;;;7.30;1.50;;;14.60;1.00;;;;;;6337381;22;20386;-87
2022/07/10 04:13:24;;;;;;;7.00;1.40;;;14.50;1.00;;;;;;6357816;22;20420;-85
2022/07/10 04:15:55;;;;;;;6.80;2.20;;;14.60;1.00;;;;;;6315166;22;20393;-84
2022/07/10 04:18:38;;;;;;;7.40;1.23;;;14.50;1.00;;;;;;6356848;22;21257;-85
2022/07/10 04:21:09;;;;;;;7.13;1.30;;;14.60;1.00;;;;;;6357266;22;20429;-83
2022/07/10 04:23:36;;;;;;;6.93;1.07;;;14.60;1.00;;;;;;6353510;22;20475;-82
2022/07/10 04:26:43;;;;;;;7.53;1.63;;;14.60;1.00;;;;;;6310346;22;20425;-84
2022/07/10 04:29:32;;;;;;;7.73;1.93;;;14.60;1.00;;;;;;6343434;22;20405;-82
2022/07/10 04:32:01;;;;;;;6.10;1.57;;;14.70;1.00;;;;;;6343730;22;20380;-84
2022/07/10 04:34:44;;;;;;;7.53;1.50;;;14.80;1.00;;;;;;6358022;22;20432;-84
2022/07/10 04:37:38;;;;;;;6.33;1.67;;;14.70;1.00;;;;;;6354576;22;20503;-84
2022/07/10 04:40:21;;;;;;;11.60;1.37;;;14.80;1.00;;;;;;6318139;22;20386;-84
2022/07/10 04:42:53;;;;;;;7.13;1.80;;;14.80;1.00;;;;;;6352130;22;20508;-83
2022/07/10 04:45:20;;;;;;;7.47;1.80;;;14.80;1.00;;;;;;6356411;22;20445;-82
2022/07/10 04:47:51;;;;;;;8.30;1.23;;;14.80;1.00;;;;;;6351194;22;20433;-77
2022/07/10 04:50:18;;;;;;;7.30;1.77;;;14.70;1.00;;;;;;6351519;22;20390;-79
2022/07/10 04:52:50;;;;;;;6.80;1.50;;;14.70;1.00;;;;;;6349499;22;21239;-79
2022/07/10 04:55:17;;;;;;;7.50;1.60;;;14.70;1.00;;;;;;6349105;22;20417;-79
2022/07/10 04:57:47;;;;;;;8.37;1.80;;;14.70;1.00;;;;;;6349579;22;20583;-79
2022/07/10 05:00:16;;;;;;;9.73;1.90;;;14.80;1.00;;;;;;6351701;22;21158;-79
2022/07/10 05:02:50;;;;;;;10.27;1.37;;;14.70;1.00;;;;;;6350670;22;20897;-78
2022/07/10 05:05:21;;;;;;;6.77;1.33;;;14.70;1.00;;;;;;6348506;22;20416;-81
2022/07/10 05:07:51;;;;;;;7.80;1.80;;;14.80;1.00;;;;;;6347245;22;20773;-80
2022/07/10 05:10:19;;;;;;;7.90;1.50;;;14.80;1.00;;;;;;6349414;22;20578;-79
2022/07/10 05:12:51;;;;;;;9.27;1.93;;;14.90;1.00;;;;;;6352598;22;20463;-81
2022/07/10 05:15:19;;;;;;;7.43;1.40;;;15.00;1.00;;;;;;6352075;22;20488;-80
2022/07/10 05:17:52;;;;;;;7.93;1.63;;;15.00;1.00;;;;;;6355213;22;20602;-83
2022/07/10 05:20:21;;;;;;;8.60;2.10;;;14.90;1.00;;;;;;6328302;22;20414;-83
2022/07/10 05:22:52;;;;;;;7.73;1.20;;;15.00;1.00;;;;;;6350330;22;20386;-80
2022/07/10 05:25:18;;;;;;;9.70;1.40;;;15.00;1.00;;;;;;6352893;22;20464;-81
2022/07/10 05:27:46;;;;;;;8.57;1.73;;;15.00;1.00;;;;;;6351259;22;20428;-81
2022/07/10 05:30:13;;;;;;;8.13;1.60;;;15.00;1.00;;;;;;6352971;22;20495;-81
2022/07/10 05:32:50;;;;;;;10.70;2.50;;;15.10;1.00;;;;;;6352189;22;20441;-82
2022/07/10 05:35:17;;;;;;;6.40;1.73;;;15.10;1.00;;;;;;6352343;22;20421;-82
2022/07/10 05:37:44;;;;;;;12.13;1.80;;;15.10;1.00;;;;;;6356969;22;20421;-81
2022/07/10 05:40:12;;;;;;;10.60;1.97;;;15.20;1.00;;;;;;6355081;22;20381;-82
2022/07/10 05:42:39;;;;;;;11.63;2.80;;;15.20;1.00;;;;;;6350852;22;20441;-82
2022/07/10 05:45:11;;;;;;;8.23;1.87;;;15.30;1.00;;;;;;6355427;22;20816;-82
2022/07/10 05:47:38;;;;;;;7.97;1.73;;;15.40;1.00;;;;;;6358557;22;20753;-81
2022/07/10 05:50:21;;;;;;;7.23;2.03;;;15.40;1.00;;;;;;6353217;22;20405;-82
2022/07/10 05:52:48;;;;;;;7.50;1.97;;;15.60;1.00;;;;;;6351577;22;20409;-83
2022/07/10 05:55:19;;;;;;;9.03;2.10;;;15.70;1.00;;;;;;6350441;22;20378;-82
2022/07/10 05:57:46;;;;;;;7.67;2.30;;;15.70;1.00;;;;;;6339719;22;20520;-83
2022/07/10 06:00:13;;;;;;;8.73;2.00;;;15.70;1.00;;;;;;6357467;22;20467;-82
2022/07/10 06:02:45;;;;;;;8.53;1.93;;;15.70;1.00;;;;;;6359376;22;20453;-82
2022/07/10 06:05:12;;;;;;;7.50;2.17;;;15.60;1.00;;;;;;6358030;22;20417;-82
2022/07/10 06:07:43;;;;;;;8.27;2.00;;;15.60;1.00;;;;;;6358629;22;20406;-81
2022/07/10 06:10:10;;;;;;;7.87;1.80;;;15.60;1.00;;;;;;6357516;22;20450;-83
2022/07/10 06:12:42;;;;;;;7.17;1.43;;;15.60;1.00;;;;;;6355255;22;20472;-82
2022/07/10 06:15:09;;;;;;;8.80;2.10;;;15.60;1.00;;;;;;6356062;22;20423;-82
2022/07/10 06:17:47;;;;;;;7.87;1.60;;;15.60;1.00;;;;;;6355259;22;20533;-81
2022/07/10 06:20:13;;;;;;;8.37;2.03;;;15.60;1.00;;;;;;6356455;22;20409;-82
2022/07/10 06:22:43;;;;;;;8.87;1.90;;;15.70;1.00;;;;;;6356190;22;20404;-82
2022/07/10 06:25:11;;;;;;;9.83;2.00;;;15.80;1.00;;;;;;6357494;22;20417;-82
2022/07/10 06:27:42;;;;;;;6.87;2.20;;;15.80;1.00;;;;;;6357286;22;20443;-82
2022/07/10 06:30:12;;;;;;;7.30;1.90;;;15.80;1.00;;;;;;6363105;22;20489;-81
2022/07/10 06:32:41;;;;;;;6.20;1.60;;;15.80;1.00;;;;;;6358522;22;20385;-82
2022/07/10 06:35:09;;;;;;;7.27;1.97;;;15.80;1.00;;;;;;6360801;22;20504;-81
2022/07/10 06:37:43;;;;;;;7.77;1.73;;;15.90;1.00;;;;;;6357468;22;20756;-80
2022/07/10 06:40:14;;;;;;;11.07;2.37;;;15.80;1.00;;;;;;6358496;22;20453;-84
2022/07/10 06:42:42;;;;;;;8.17;1.90;;;15.80;1.00;;;;;;6343683;22;20394;-81
2022/07/10 06:45:09;;;;;;;10.83;2.00;;;15.90;1.00;;;;;;6359375;22;20414;-82
2022/07/10 06:50:26;;;;;;;9.47;1.83;;;16.20;1.00;;;;;;6354616;22;20451;-82
2022/07/10 06:52:54;;;;;;;8.83;2.10;;;16.20;1.00;;;;;;6353948;22;20878;-83
2022/07/10 06:55:22;;;;;;;7.70;2.13;;;16.20;1.00;;;;;;6357639;22;20382;-82
2022/07/10 06:57:50;;;;;;;19.87;2.87;;;16.10;1.00;;;;;;6355230;22;20417;-81
2022/07/10 07:00:24;;;;;;;12.93;2.17;;;16.20;1.00;;;;;;6357242;22;20419;-82
2022/07/10 07:02:51;;;;;;;7.73;1.90;;;16.30;1.00;;;;;;6354554;22;20851;-83
2022/07/10 07:05:22;;;;;;;8.53;1.70;;;16.40;1.00;;;;;;6355362;22;20397;-82
2022/07/10 07:07:49;;;;;;;9.23;1.80;;;16.50;1.00;;;;;;6356153;22;20414;-83
2022/07/10 07:10:23;;;;;;;10.70;2.63;;;16.50;1.00;;;;;;6361787;22;20939;-82
2022/07/10 07:12:50;;;;;;;9.03;2.00;;;16.50;1.00;;;;;;6355012;22;20470;-83
2022/07/10 07:15:23;;;;;;;8.50;2.37;;;16.50;1.00;;;;;;6355815;22;20560;-83
2022/07/10 07:23:27;;;;;;;8.30;1.77;;;17.00;1.00;;;;;;6352697;22;20386;-82
2022/07/10 07:25:57;;;;;;;8.60;2.43;;;17.20;1.00;;;;;;6354658;22;20917;-82
2022/07/10 07:28:24;;;;;;;6.70;2.00;;;17.30;1.00;;;;;;6355646;22;20961;-83
2022/07/10 07:30:51;;;;;;;7.20;1.70;;;17.50;1.00;;;;;;6356518;22;20461;-82
2022/07/10 07:33:22;;;;;;;9.17;2.00;;;17.50;1.00;;;;;;6355861;22;20452;-83
2022/07/10 07:35:49;;;;;;;8.00;1.93;;;17.60;1.00;;;;;;6353462;22;20405;-83
2022/07/10 07:38:22;;;;;;;7.93;2.40;;;17.60;1.00;;;;;;6325123;22;20429;-82
2022/07/10 07:40:50;;;;;;;10.70;1.90;;;17.80;1.00;;;;;;6355359;22;20390;-82
2022/07/10 07:43:27;;;;;;;7.93;2.30;;;17.80;1.00;;;;;;6355038;22;20575;-82
2022/07/10 07:46:00;;;;;;;8.43;1.80;;;17.70;1.00;;;;;;6353638;22;20900;-83
2022/07/10 07:48:28;;;;;;;9.13;1.63;;;17.80;1.00;;;;;;6356957;22;20425;-84
2022/07/10 07:50:58;;;;;;;8.63;1.77;;;17.80;1.00;;;;;;6361181;22;20405;-83
2022/07/10 07:53:25;;;;;;;6.87;1.77;;;17.80;1.00;;;;;;6361543;22;20418;-83
2022/07/10 07:55:52;;;;;;;8.07;2.10;;;17.90;1.00;;;;;;6359127;22;20896;-83
2022/07/10 07:58:24;;;;;;;8.83;1.90;;;18.00;1.00;;;;;;6356647;22;20479;-82
2022/07/10 08:00:51;;;;;;;9.20;2.30;;;18.10;1.00;;;;;;6360007;22;20431;-82
2022/07/10 08:03:22;;;;;;;6.10;1.50;;;18.40;1.00;;;;;;6358322;22;20448;-83
2022/07/10 08:05:49;;;;;;;9.60;1.60;;;18.60;1.00;;;;;;6353588;22;20584;-83
2022/07/10 08:08:18;;;;;;;7.23;2.10;;;18.80;1.00;;;;;;6352620;22;20436;-82
2022/07/10 08:10:47;;;;;;;7.90;2.33;;;18.80;1.00;;;;;;6354867;22;20409;-83
2022/07/10 08:13:22;;;;;;;9.40;1.93;;;18.70;1.00;;;;;;6355230;22;20421;-83
2022/07/10 08:15:53;;;;;;;7.53;2.27;;;18.70;1.00;;;;;;6354564;22;20482;-83
2022/07/10 08:18:22;;;;;;;7.70;1.70;;;18.80;1.00;;;;;;6350443;22;20504;-83
2022/07/10 08:20:52;;;;;;;8.97;2.23;;;18.80;1.00;;;;;;6356223;22;20389;-82
2022/07/10 08:23:21;;;;;;;8.13;1.93;;;18.70;1.00;;;;;;6358694;22;20462;-83
2022/07/10 08:25:48;;;;;;;8.00;1.90;;;18.70;1.00;;;;;;6353377;22;20516;-83
2022/07/10 08:28:16;;;;;;;8.30;1.80;;;18.60;1.00;;;;;;6355680;22;20402;-82
2022/07/10 08:30:47;;;;;;;7.70;1.57;;;18.50;1.00;;;;;;6353549;22;20397;-83
2022/07/10 08:33:27;;;;;;;8.77;2.00;;;18.50;1.00;;;;;;6352460;22;20417;-82
2022/07/10 08:35:58;;;;;;;9.50;2.50;;;18.90;1.00;;;;;;6309482;22;20456;-83
2022/07/10 08:38:27;;;;;;;7.60;1.77;;;19.30;1.00;;;;;;6355836;22;20429;-83
2022/07/10 08:40:57;;;;;;;7.63;1.70;;;19.80;1.00;;;;;;6357483;22;20445;-83
2022/07/10 08:43:24;;;;;;;8.50;2.00;;;20.00;1.00;;;;;;6356818;22;20850;-83
2022/07/10 08:45:54;;;;;;;7.00;1.73;;;19.90;1.00;;;;;;6351972;22;20382;-83
2022/07/10 08:48:25;;;;;;;12.00;2.40;;;19.60;1.00;;;;;;6354401;22;20456;-83
2022/07/10 08:50:54;;;;;;;9.60;1.87;;;19.40;1.00;;;;;;6353564;22;20919;-83
2022/07/10 08:53:29;;;;;;;7.60;1.80;;;19.00;1.00;;;;;;6355472;22;20417;-83
2022/07/10 08:56:00;;;;;;;9.33;1.80;;;18.70;1.00;;;;;;6354872;22;20826;-83
2022/07/10 08:58:30;;;;;;;8.10;2.10;;;18.50;1.00;;;;;;6355008;22;20556;-83
2022/07/10 09:01:02;;;;;;;6.97;1.57;;;18.50;1.00;;;;;;6354017;22;20508;-82
2022/07/10 09:03:33;;;;;;;9.80;2.03;;;18.40;1.00;;;;;;6353758;22;20445;-83
2022/07/10 09:06:03;;;;;;;16.33;10.10;;;18.50;1.00;;;;;;6354760;22;20397;-84
2022/07/10 09:08:32;;;;;;;9.57;2.37;;;18.80;1.00;;;;;;6353236;22;20550;-83
2022/07/10 09:11:23;;;;;;;9.40;2.30;;;18.80;1.00;;;;;;6355450;22;20423;-82
2022/07/10 09:13:51;;;;;;;7.70;1.93;;;18.50;1.00;;;;;;6355563;22;20441;-83
2022/07/10 09:16:25;;;;;;;9.13;2.37;;;18.30;1.00;;;;;;6356812;22;20437;-82
2022/07/10 09:18:55;;;;;;;8.77;2.17;;;18.20;1.00;;;;;;6356400;22;20420;-82
2022/07/10 09:21:23;;;;;;;7.87;2.03;;;18.20;1.00;;;;;;6360350;22;20512;-83
2022/07/10 09:23:50;;;;;;;9.20;1.80;;;18.20;1.00;;;;;;6357051;22;20521;-83
2022/07/10 09:26:22;;;;;;;10.00;2.20;;;18.30;1.00;;;;;;6355595;22;20397;-84
2022/07/10 09:29:10;;;;;;;7.73;1.80;;;18.60;1.00;;;;;;6357649;22;20420;-83
2022/07/10 09:31:50;;;;;;;6.77;1.80;;;19.00;1.00;;;;;;6355402;22;20389;-82
2022/07/10 09:34:41;;;;;;;7.23;2.20;;;19.30;1.00;;;;;;6329608;22;20416;-83
2022/07/10 09:37:22;;;;;;;7.30;1.70;;;19.40;1.00;;;;;;6340134;22;20429;-83
2022/07/10 09:39:57;;;;;;;8.60;2.30;;;19.30;1.00;;;;;;6354144;22;20423;-84
2022/07/10 09:42:35;;;;;;;7.00;1.67;;;19.50;1.00;;;;;;6357980;22;20436;-82
2022/07/10 09:45:16;;;;;;;8.83;2.40;;;19.90;1.00;;;;;;6359082;22;20917;-83
2022/07/10 09:47:44;;;;;;;9.73;2.47;;;20.20;1.00;;;;;;6357007;22;20397;-82
2022/07/10 09:50:25;;;;;;;7.03;1.73;;;20.50;1.00;;;;;;6357497;22;20452;-83
2022/07/10 09:52:56;;;;;;;9.90;2.70;;;20.70;1.00;;;;;;6356487;22;20392;-82
2022/07/10 09:55:35;;;;;;;7.90;1.80;;;20.50;1.00;;;;;;6358299;22;21203;-84
2022/07/10 09:58:03;;;;;;;8.53;1.70;;;20.40;1.00;;;;;;6358111;22;20424;-82
2022/07/10 10:00:34;;;;;;;12.47;3.10;;;20.70;1.00;;;;;;6361340;22;20428;-84
2022/07/10 10:03:02;;;;;;;8.50;2.07;;;20.90;1.00;;;;;;6361078;22;20447;-84
2022/07/10 10:05:40;;;;;;;8.53;2.03;;;21.00;1.00;;;;;;6353290;22;20548;-83
2022/07/10 10:08:15;;;;;;;8.57;2.33;;;21.20;1.00;;;;;;6358771;22;20425;-84
2022/07/10 10:10:47;;;;;;;9.83;1.90;;;21.10;1.00;;;;;;6356183;22;20454;-82
2022/07/10 10:13:18;;;;;;;10.73;2.30;;;21.30;1.00;;;;;;6356284;22;20408;-82
2022/07/10 10:15:54;;;;;;;7.97;1.80;;;21.20;1.00;;;;;;6360158;22;20459;-83
2022/07/10 10:18:23;;;;;;;10.83;2.73;;;20.80;1.00;;;;;;6355983;22;20401;-83
2022/07/10 10:20:54;;;;;;;9.03;1.90;;;20.40;1.00;;;;;;6354824;22;20450;-83
2022/07/10 10:23:24;;;;;;;8.00;2.00;;;20.10;1.00;;;;;;6360075;22;20456;-83
2022/07/10 10:25:54;;;;;;;6.53;1.63;;;20.20;1.00;;;;;;6355237;22;20410;-83
2022/07/10 10:28:24;;;;;;;7.73;1.63;;;20.60;1.00;;;;;;6354126;22;20438;-84
2022/07/10 10:30:54;;;;;;;7.13;1.83;;;21.10;1.00;;;;;;6357648;22;20484;-83
2022/07/10 10:33:44;;;;;;;7.67;1.73;;;20.90;1.00;;;;;;6357872;22;20448;-84
2022/07/10 10:36:17;;;;;;;7.70;1.73;;;20.70;1.00;;;;;;6357297;22;20446;-83
2022/07/10 10:39:13;;;;;;;8.50;2.13;;;20.60;1.00;;;;;;6359133;22;21195;-84
2022/07/10 10:41:44;;;;;;;11.00;2.03;;;20.50;1.00;;;;;;6335641;22;20479;-84
2022/07/10 10:44:32;;;;;;;9.50;2.70;;;20.50;1.00;;;;;;6357930;22;20425;-83
2022/07/10 10:47:05;;;;;;;9.10;1.73;;;21.00;1.00;;;;;;6353957;22;20493;-83
2022/07/10 10:49:56;;;;;;;9.00;2.00;;;21.50;1.00;;;;;;6361747;22;20370;-82
2022/07/10 10:52:25;;;;;;;9.10;1.70;;;21.80;1.00;;;;;;6356388;22;20440;-82
2022/07/10 10:55:14;;;;;;;9.37;2.57;;;21.70;1.00;;;;;;6354932;22;20382;-83
2022/07/10 10:57:52;;;;;;;8.00;2.10;;;21.80;1.00;;;;;;6354858;22;20424;-83
2022/07/10 11:00:41;;;;;;;8.10;2.10;;;21.70;1.00;;;;;;6356677;22;20499;-83
2022/07/10 11:03:19;;;;;;;6.30;2.00;;;21.70;1.00;;;;;;6358739;22;20438;-84
2022/07/10 11:05:54;;;;;;;9.63;2.60;;;21.80;1.00;;;;;;6358832;22;20385;-82
2022/07/10 11:08:41;;;;;;;7.40;1.47;;;22.00;1.00;;;;;;6355941;22;20420;-84
2022/07/10 11:11:39;;;;;;;9.13;2.27;;;22.30;1.00;;;;;;6353418;22;20419;-84
2022/07/10 11:14:12;;;;;;;7.97;2.00;;;22.30;1.00;;;;;;6260046;22;20424;-82
2022/07/10 11:16:52;;;;;;;7.70;2.13;;;22.00;1.00;;;;;;6336833;22;21332;-82
2022/07/10 11:19:23;;;;;;;6.63;1.63;;;21.70;1.00;;;;;;6354408;22;20417;-82
2022/07/10 11:22:12;;;;;;;6.97;1.53;;;21.40;1.00;;;;;;6354697;22;20366;-83
2022/07/10 11:24:52;;;;;;;8.87;2.07;;;21.00;1.00;;;;;;6352630;22;20468;-83
2022/07/10 11:27:52;;;;;;;7.50;2.23;;;20.90;1.00;;;;;;6355637;22;20413;-83
2022/07/10 11:30:19;;;;;;;7.83;2.27;;;21.20;1.00;;;;;;6354909;22;20425;-82
2022/07/10 11:32:57;;;;;;;9.30;2.40;;;21.40;1.00;;;;;;6356407;22;20486;-83
2022/07/10 11:35:33;;;;;;;8.13;1.90;;;22.70;1.00;;;;;;6355144;22;20424;-82
2022/07/10 11:38:00;;;;;;;10.40;2.20;;;24.00;1.00;;;;;;6355581;22;20401;-84
2022/07/10 11:40:36;;;;;;;6.43;1.80;;;24.10;1.00;;;;;;6354789;22;20413;-81
2022/07/10 11:43:05;;;;;;;7.27;2.17;;;23.70;1.00;;;;;;6355698;22;20448;-83
2022/07/10 11:45:37;;;;;;;9.50;2.60;;;23.10;1.00;;;;;;6340874;22;20385;-82
2022/07/10 11:48:07;;;;;;;13.73;2.30;;;22.80;1.00;;;;;;6329765;22;20944;-85
2022/07/10 11:50:38;;;;;;;9.20;2.30;;;22.70;1.00;;;;;;6355729;22;20421;-83
2022/07/10 11:53:06;;;;;;;7.00;2.40;;;23.10;1.00;;;;;;6340371;22;20413;-84
2022/07/10 11:55:40;;;;;;;6.70;1.60;;;25.10;1.00;;;;;;6347456;22;20458;-82
2022/07/10 11:58:17;;;;;;;6.87;2.40;;;26.90;1.00;;;;;;6351028;22;20405;-83
2022/07/10 12:00:44;;;;;;;6.87;1.53;;;26.50;1.00;;;;;;6350962;22;20409;-82
2022/07/10 12:03:19;;;;;;;7.83;1.80;;;26.30;1.00;;;;;;6350576;22;20418;-82
2022/07/10 12:05:52;;;;;;;7.23;1.80;;;27.00;1.00;;;;;;6351179;22;20437;-84
2022/07/10 12:08:20;;;;;;;7.23;2.20;;;28.40;1.00;;;;;;6355204;22;20980;-85
2022/07/10 12:10:55;;;;;;;9.93;2.47;;;28.00;1.00;;;;;;6353513;22;20420;-83
2022/07/10 12:13:24;;;;;;;10.53;2.60;;;26.80;1.00;;;;;;6354249;22;20381;-83
2022/07/10 12:15:54;;;;;;;8.20;2.30;;;25.50;1.00;;;;;;6357060;22;20431;-83
2022/07/10 12:18:22;;;;;;;7.80;1.83;;;24.40;1.00;;;;;;6356511;22;20973;-83
2022/07/10 12:20:54;;;;;;;6.80;1.80;;;23.50;1.00;;;;;;6354863;22;20390;-83
2022/07/10 12:23:24;;;;;;;8.40;2.10;;;22.90;1.00;;;;;;6359185;22;20502;-83
2022/07/10 12:25:59;;;;;;;5.80;1.60;;;22.90;1.00;;;;;;6357620;22;20420;-84
2022/07/10 12:28:27;;;;;;;6.60;1.93;;;22.70;1.00;;;;;;6354756;22;20492;-83
2022/07/10 12:30:54;;;;;;;8.00;2.00;;;22.90;1.00;;;;;;6353021;22;20405;-83
2022/07/10 12:33:22;;;;;;;6.50;1.90;;;24.30;1.00;;;;;;6361148;22;20575;-84
2022/07/10 12:35:57;;;;;;;9.20;2.10;;;27.40;1.00;;;;;;6356058;22;20398;-84
2022/07/10 12:38:26;;;;;;;6.70;1.73;;;29.40;1.00;;;;;;6355046;22;20763;-84
2022/07/10 12:41:12;;;;;;;6.77;1.57;;;28.70;1.00;;;;;;6358565;22;20413;-83
2022/07/10 12:43:59;;;;;;;10.23;2.27;;;27.30;1.00;;;;;;6351736;22;20379;-83
2022/07/10 12:46:26;;;;;;;7.20;2.13;;;25.90;1.00;;;;;;6353553;22;20460;-83
2022/07/10 12:49:06;;;;;;;7.93;2.00;;;24.70;1.00;;;;;;6357292;22;20385;-84
2022/07/10 12:51:35;;;;;;;7.83;2.20;;;24.20;1.00;;;;;;6353290;22;20413;-83
2022/07/10 12:54:02;;;;;;;8.47;1.93;;;24.10;1.00;;;;;;6354386;22;20968;-84
2022/07/10 12:56:38;;;;;;;9.60;2.40;;;24.80;1.00;;;;;;6351303;22;20405;-82
2022/07/10 12:59:17;;;;;;;8.10;2.17;;;25.20;1.00;;;;;;6353820;22;20582;-83
2022/07/10 13:01:45;;;;;;;7.23;1.90;;;25.20;1.00;;;;;;6353630;22;20420;-84
2022/07/10 13:04:14;;;;;;;6.97;1.73;;;25.10;1.00;;;;;;6352360;22;20374;-85
2022/07/10 13:06:41;;;;;;;8.20;2.00;;;24.90;1.00;;;;;;6354534;22;20904;-82
2022/07/10 13:09:26;;;;;;;7.67;2.20;;;24.90;1.00;;;;;;6355709;22;20389;-83
2022/07/10 13:11:55;;;;;;;9.27;2.30;;;25.60;1.00;;;;;;6357039;22;20403;-82
2022/07/10 13:14:22;;;;;;;7.90;1.97;;;27.80;1.00;;;;;;6340866;22;20429;-81
2022/07/10 13:16:54;;;;;;;9.50;2.07;;;27.90;1.00;;;;;;6328716;22;20377;-83
2022/07/10 13:19:20;;;;;;;9.23;2.17;;;26.90;1.00;;;;;;6340309;22;20382;-82
2022/07/10 13:21:53;;;;;;;8.97;1.77;;;26.50;1.00;;;;;;6355222;22;20407;-85
2022/07/10 13:24:20;;;;;;;8.03;1.63;;;26.70;1.00;;;;;;6355054;22;20421;-83
2022/07/10 13:26:54;;;;;;;7.60;1.53;;;26.10;1.00;;;;;;6355753;22;20424;-84
2022/07/10 13:29:23;;;;;;;26.63;12.57;;;25.10;1.00;;;;;;6355890;22;20458;-83
2022/07/10 13:31:54;;;;;;;7.10;2.00;;;24.20;1.00;;;;;;6352403;22;20397;-84
2022/07/10 13:34:21;;;;;;;6.60;1.87;;;23.40;1.00;;;;;;6355611;22;20417;-83
2022/07/10 13:36:57;;;;;;;8.10;2.67;;;22.70;1.00;;;;;;6328758;22;20429;-83
2022/07/10 13:39:25;;;;;;;8.43;1.77;;;22.40;1.00;;;;;;6360118;22;20416;-83